createdAt,value
2019-03-26T00:02:54.493Z,96820.02
2019-03-26T00:08:00.769Z,96826.33
2019-03-26T00:13:05.410Z,96831.33
2019-03-26T00:18:10.155Z,96840.34
2019-03-26T00:23:14.808Z,96846.89
2019-03-26T00:28:19.546Z,96849.58
2019-03-26T00:33:35.684Z,96848.98
2019-03-26T00:38:30.788Z,96857.06
2019-03-26T00:43:37.362Z,96848.56
2019-03-26T00:48:41.683Z,96851.38
2019-03-26T00:53:46.425Z,96848.95
2019-03-26T00:58:51.173Z,96843.83
2019-03-26T01:03:55.913Z,96849.36
2019-03-26T01:09:00.655Z,96854.12
2019-03-26T01:14:05.913Z,96871.25
2019-03-26T01:19:10.653Z,96868.44
2019-03-26T01:24:15.400Z,96865.73
2019-03-26T01:29:21.371Z,96865.62
2019-03-26T01:34:25.950Z,96869.61
2019-03-26T01:39:30.649Z,96881.52
2019-03-26T01:44:35.392Z,96888.76
2019-03-26T01:49:40.136Z,96903.83
2019-03-26T01:54:44.982Z,96907.77
2019-03-26T01:59:49.727Z,96909.03
2019-03-26T02:04:59.805Z,96918.50
2019-03-26T02:10:00.649Z,96933.55
2019-03-26T02:15:07.557Z,96942.48
2019-03-26T02:20:12.385Z,96955.38
2019-03-26T02:25:17.124Z,96953.86
2019-03-26T02:30:21.970Z,96965.89
2019-03-26T02:35:26.716Z,96977.91
2019-03-26T02:40:31.461Z,96979.03
2019-03-26T02:45:36.096Z,96988.22
2019-03-26T02:50:40.840Z,96991.19
2019-03-26T02:55:45.479Z,97018.55
2019-03-26T03:00:50.123Z,97019.30
2019-03-26T03:05:54.682Z,97023.70
2019-03-26T03:10:59.410Z,97024.53
2019-03-26T03:16:04.043Z,97053.37
2019-03-26T03:21:08.786Z,97057.22
2019-03-26T03:26:13.540Z,97078.38
2019-03-26T03:31:18.282Z,97090.87
2019-03-26T03:36:23.015Z,97101.94
2019-03-26T03:41:27.541Z,97109.20
2019-03-26T03:46:32.297Z,97121.19
2019-03-26T03:51:36.889Z,97131.56
2019-03-26T03:56:41.686Z,97130.77
2019-03-26T04:01:46.405Z,97136.05
2019-03-26T04:06:51.163Z,97151.28
2019-03-26T04:11:55.819Z,97155.28
2019-03-26T04:17:00.651Z,97165.41
2019-03-26T04:22:05.298Z,97179.77
2019-03-26T04:27:10.036Z,97179.58
2019-03-26T04:32:15.001Z,97205.00
2019-03-26T04:37:20.241Z,97207.58
2019-03-26T04:42:25.707Z,97211.52
2019-03-26T04:47:31.328Z,97235.00
2019-03-26T04:52:36.312Z,97224.69
2019-03-26T04:57:41.055Z,97247.80
2019-03-26T05:02:45.800Z,97241.05
2019-03-26T05:07:50.536Z,97252.27
2019-03-26T05:12:55.487Z,97248.63
2019-03-26T05:18:00.225Z,97251.08
2019-03-26T05:23:05.384Z,97248.78
2019-03-26T05:28:10.123Z,97258.50
2019-03-26T05:33:14.872Z,97261.11
2019-03-26T05:38:19.509Z,97256.56
2019-03-26T05:43:25.173Z,97256.67
2019-03-26T05:48:30.229Z,97257.20
2019-03-26T05:53:34.867Z,97261.12
2019-03-26T05:58:41.218Z,97259.20
2019-03-26T06:03:47.841Z,97259.31
2019-03-26T06:08:52.273Z,97257.45
2019-03-26T06:13:58.649Z,97265.66
2019-03-26T06:19:03.475Z,97268.25
2019-03-26T06:24:08.239Z,97273.89
2019-03-26T06:29:12.768Z,97286.33
2019-03-26T06:34:17.519Z,97291.73
2019-03-26T06:39:22.264Z,97298.99
2019-03-26T06:44:27.005Z,97303.73
2019-03-26T06:49:31.750Z,97307.58
2019-03-26T06:54:36.489Z,97318.95
2019-03-26T06:59:41.036Z,97312.78
2019-03-26T07:04:48.843Z,97317.84
2019-03-26T07:09:53.798Z,97323.73
2019-03-26T07:14:58.385Z,97324.48
2019-03-26T07:20:02.963Z,97322.19
2019-03-26T07:25:10.209Z,97333.45
2019-03-26T07:30:35.703Z,97337.05
2019-03-26T07:35:40.335Z,97342.06
2019-03-26T07:40:44.978Z,97346.23
2019-03-26T07:45:49.730Z,97347.87
2019-03-26T07:50:56.314Z,97352.48
2019-03-26T07:56:01.162Z,97347.92
2019-03-26T08:01:05.902Z,97357.33
2019-03-26T08:06:10.648Z,97360.66
2019-03-26T08:11:15.492Z,97362.78
2019-03-26T08:16:20.251Z,97358.38
2019-03-26T08:21:24.870Z,97362.94
2019-03-26T08:26:29.620Z,97358.86
2019-03-26T08:31:34.471Z,97363.75
2019-03-26T08:36:39.419Z,97362.11
2019-03-26T08:41:44.162Z,97361.03
2019-03-26T08:46:48.905Z,97357.06
2019-03-26T08:51:53.536Z,97359.41
2019-03-26T08:56:58.284Z,97358.72
2019-03-26T09:02:03.031Z,97359.60
2019-03-26T09:07:10.832Z,97357.42
2019-03-26T09:12:14.052Z,97359.92
2019-03-26T09:17:19.961Z,97355.58
2019-03-26T09:22:24.970Z,97357.60
2019-03-26T09:27:29.814Z,97352.10
2019-03-26T09:32:34.559Z,97349.41
2019-03-26T09:37:39.199Z,97356.16
2019-03-26T09:42:43.942Z,97348.28
2019-03-26T09:47:49.493Z,97357.72
2019-03-26T09:52:54.249Z,97359.20
2019-03-26T09:57:59.135Z,97364.95
2019-03-26T10:03:05.379Z,97376.52
2019-03-26T10:08:10.122Z,97372.45
2019-03-26T10:13:14.859Z,97379.67
2019-03-26T10:18:19.749Z,97380.93
2019-03-26T10:23:24.453Z,97383.83
2019-03-26T10:28:29.200Z,97390.42
2019-03-26T10:33:35.024Z,97389.09
2019-03-26T10:38:40.015Z,97393.83
2019-03-26T10:43:44.972Z,97393.41
2019-03-26T10:48:49.692Z,97393.97
2019-03-26T10:53:54.557Z,97401.30
2019-03-26T10:58:59.184Z,97389.45
2019-03-26T11:04:03.939Z,97389.01
2019-03-26T11:09:19.937Z,97386.42
2019-03-26T11:14:14.967Z,97377.52
2019-03-26T11:19:19.700Z,97385.46
2019-03-26T11:24:24.448Z,97381.41
2019-03-26T11:29:29.394Z,97375.08
2019-03-26T11:34:34.956Z,97384.59
2019-03-26T11:45:06.285Z,97376.75
2019-03-26T11:50:15.649Z,97378.16
2019-03-26T11:55:21.911Z,97386.02
2019-03-26T12:00:30.341Z,97387.28
2019-03-26T12:05:36.186Z,97393.31
2019-03-26T12:10:41.028Z,97396.02
2019-03-26T12:15:50.171Z,97402.97
2019-03-26T12:20:55.064Z,97409.00
2019-03-26T12:25:59.665Z,97415.38
2019-03-26T12:31:04.612Z,97427.46
2019-03-26T12:36:10.638Z,97435.14
2019-03-26T12:41:16.180Z,97447.97
2019-03-26T12:46:22.635Z,97460.38
2019-03-26T12:51:29.082Z,97455.61
2019-03-26T12:56:33.744Z,97442.45
2019-03-26T13:01:38.604Z,97445.28
2019-03-26T13:06:43.335Z,97449.42
2019-03-26T13:11:48.196Z,97446.41
2019-03-26T13:16:52.931Z,97437.61
2019-03-26T13:22:01.885Z,97433.28
2019-03-26T13:27:06.721Z,97430.06
2019-03-26T13:32:13.041Z,97419.91
2019-03-26T13:37:21.662Z,97435.48
2019-03-26T13:42:24.979Z,97437.19
2019-03-26T13:47:30.099Z,97442.53
2019-03-26T13:52:34.836Z,97442.16
2019-03-26T13:57:39.795Z,97441.96
2019-03-26T14:02:45.014Z,97445.53
2019-03-26T14:07:50.634Z,97446.63
2019-03-26T14:12:56.166Z,97450.44
2019-03-26T14:18:02.250Z,97451.48
2019-03-26T14:23:08.329Z,97443.11
2019-03-26T14:28:14.187Z,97445.41
2019-03-26T14:33:19.863Z,97448.84
2019-03-26T14:38:25.883Z,97454.27
2019-03-26T14:43:31.633Z,97451.91
2019-03-26T14:48:37.082Z,97450.50
2019-03-26T14:53:42.586Z,97452.30
2019-03-26T14:58:48.412Z,97455.97
2019-03-26T15:03:54.505Z,97461.79
2019-03-26T15:09:00.270Z,97454.89
2019-03-26T15:14:08.398Z,97456.81
2019-03-26T15:19:14.137Z,97465.67
2019-03-26T15:24:20.044Z,97464.20
2019-03-26T15:29:26.179Z,97462.96
2019-03-26T15:34:36.358Z,97468.66
2019-03-26T15:39:39.499Z,97481.73
2019-03-26T15:44:45.744Z,97486.68
2019-03-26T15:49:51.670Z,97493.67
2019-03-26T15:54:57.482Z,97496.23
2019-03-26T16:00:03.811Z,97488.92
2019-03-26T16:05:09.781Z,97489.91
2019-03-26T16:10:15.877Z,97495.88
2019-03-26T16:15:21.788Z,97491.80
2019-03-26T16:20:27.503Z,97496.69
2019-03-26T16:25:33.178Z,97498.48
2019-03-26T16:30:40.392Z,97505.11
2019-03-26T16:35:49.108Z,97511.07
2019-03-26T16:40:54.882Z,97516.71
2019-03-26T16:46:01.910Z,97519.39
2019-03-26T16:51:08.205Z,97523.09
2019-03-26T16:56:14.500Z,97527.15
2019-03-26T17:01:20.937Z,97527.33
2019-03-26T17:06:27.276Z,97532.92
2019-03-26T17:11:32.195Z,97535.08
2019-03-26T17:16:36.971Z,97542.86
2019-03-26T17:21:41.995Z,97550.55
2019-03-26T17:26:46.908Z,97553.19
2019-03-26T17:31:52.060Z,97562.12
2019-03-26T17:36:59.135Z,97558.75
2019-03-26T17:42:16.549Z,97574.45
2019-03-26T17:47:10.314Z,97577.99
2019-03-26T17:52:15.790Z,97585.86
2019-03-26T17:57:20.679Z,97586.34
2019-03-26T18:02:25.632Z,97591.05
2019-03-26T18:07:31.546Z,97596.75
2019-03-26T18:12:36.536Z,97602.23
2019-03-26T18:17:41.801Z,97608.55
2019-03-26T18:22:46.881Z,97612.36
2019-03-26T18:27:52.107Z,97621.36
2019-03-26T18:32:58.193Z,97627.09
2019-03-26T18:38:03.606Z,97633.79
2019-03-26T18:43:08.596Z,97632.75
2019-03-26T18:48:14.048Z,97633.19
2019-03-26T18:53:19.255Z,97637.95
2019-03-26T18:58:24.547Z,97643.14
2019-03-26T19:03:30.551Z,97642.62
2019-03-26T19:08:35.869Z,97656.87
2019-03-26T19:13:41.081Z,97656.41
2019-03-26T19:18:46.525Z,97663.44
2019-03-26T19:24:03.298Z,97665.95
2019-03-26T19:28:58.343Z,97670.45
2019-03-26T19:34:03.673Z,97667.98
2019-03-26T19:39:10.692Z,97679.27
2019-03-26T19:44:17.287Z,97680.03
2019-03-26T19:49:22.755Z,97685.25
2019-03-26T19:54:27.791Z,97694.20
2019-03-26T19:59:32.727Z,97696.34
2019-03-26T20:04:37.741Z,97706.08
2019-03-26T20:09:43.520Z,97699.69
2019-03-26T20:14:48.456Z,97707.68
2019-03-26T20:19:53.400Z,97708.42
2019-03-26T20:24:58.392Z,97718.52
2019-03-26T20:30:03.256Z,97726.03
2019-03-26T20:35:08.405Z,97725.00
2019-03-26T20:40:13.452Z,97724.32
2019-03-26T20:45:19.540Z,97728.78
2019-03-26T20:50:25.952Z,97731.81
2019-03-26T20:55:32.340Z,97738.95
2019-03-26T21:00:41.354Z,97757.88
2019-03-26T21:05:46.379Z,97768.20
2019-03-26T21:10:51.027Z,97773.13
2019-03-26T21:15:57.724Z,97771.92
2019-03-26T21:21:02.559Z,97779.78
2019-03-26T21:26:07.401Z,97785.56
2019-03-26T21:31:12.151Z,97790.06
2019-03-26T21:36:17.811Z,97796.59
2019-03-26T21:41:23.063Z,97797.09
2019-03-26T21:46:27.714Z,97797.89
2019-03-26T21:51:32.348Z,97806.75
2019-03-26T21:56:36.993Z,97807.95
2019-03-26T22:01:41.636Z,97814.36
2019-03-26T22:06:46.373Z,97814.20
2019-03-26T22:11:52.031Z,97817.64
2019-03-26T22:16:56.779Z,97820.00
2019-03-26T22:22:01.522Z,97816.72
2019-03-26T22:27:06.260Z,97834.48
2019-03-26T22:32:11.017Z,97844.80
2019-03-26T22:37:15.751Z,97851.14
2019-03-26T22:42:20.492Z,97843.68
2019-03-26T22:47:25.235Z,97853.69
2019-03-26T22:52:29.981Z,97851.73
2019-03-26T22:57:34.722Z,97848.12
2019-03-26T23:02:39.564Z,97843.45
2019-03-26T23:07:44.213Z,97844.42
2019-03-26T23:12:48.847Z,97844.09
2019-03-26T23:17:53.478Z,97848.65
2019-03-26T23:22:58.239Z,97854.19
2019-03-26T23:28:02.868Z,97851.00
2019-03-26T23:33:07.617Z,97855.44
2019-03-26T23:38:12.181Z,97863.48
2019-03-26T23:43:16.898Z,97865.61
2019-03-26T23:48:21.540Z,97863.16
2019-03-26T23:53:26.326Z,97865.77
2019-03-26T23:58:31.228Z,97860.39
